createdAt,value
2023-04-22T00:04:15.724Z,100191.56
2023-04-22T00:09:17.710Z,100187.16
2023-04-22T00:14:19.502Z,100193.63
2023-04-22T00:19:22.105Z,100186.41
2023-04-22T00:24:23.891Z,100176.81
2023-04-22T00:29:26.255Z,100177.34
2023-04-22T00:34:28.056Z,100173.00
2023-04-22T00:39:30.251Z,100170.53
2023-04-22T00:44:32.899Z,100174.03
2023-04-22T00:49:35.762Z,100169.63
2023-04-22T00:54:38.100Z,100155.38
2023-04-22T00:59:40.411Z,100159.06
2023-04-22T01:04:42.842Z,100153.75
2023-04-22T01:09:44.768Z,100151.75
2023-04-22T01:14:46.632Z,100151.94
2023-04-22T01:19:48.944Z,100145.56
2023-04-22T01:24:51.203Z,100144.81
2023-04-22T01:29:53.326Z,100143.72
2023-04-22T01:34:55.118Z,100141.22
2023-04-22T01:39:58.603Z,100143.88
2023-04-22T01:45:00.404Z,100157.16
2023-04-22T01:50:02.202Z,100149.47
2023-04-22T01:55:04.229Z,100148.22
2023-04-22T02:00:07.485Z,100143.88
2023-04-22T02:05:09.774Z,100142.34
2023-04-22T02:10:12.266Z,100142.16
2023-04-22T02:15:14.069Z,100143.97
2023-04-22T02:20:15.910Z,100131.53
2023-04-22T02:25:17.931Z,100132.50
2023-04-22T02:30:19.782Z,100135.31
2023-04-22T02:35:21.749Z,100119.38
2023-04-22T02:40:23.698Z,100129.06
2023-04-22T02:45:25.520Z,100120.25
2023-04-22T02:50:27.271Z,100121.94
2023-04-22T02:55:29.127Z,100121.09
2023-04-22T03:00:31.054Z,100107.97
2023-04-22T03:05:32.933Z,100096.22
2023-04-22T03:10:34.888Z,100085.78
2023-04-22T03:15:36.697Z,100080.47
2023-04-22T03:20:38.611Z,100082.09
2023-04-22T03:25:40.406Z,100076.09
2023-04-22T03:30:42.183Z,100070.69
2023-04-22T03:35:44.105Z,100074.19
2023-04-22T03:40:45.844Z,100074.31
2023-04-22T03:45:47.791Z,100069.75
2023-04-22T03:50:49.630Z,100059.97
2023-04-22T03:55:51.567Z,100044.97
2023-04-22T04:00:53.390Z,100038.81
2023-04-22T04:05:55.461Z,100037.88
2023-04-22T04:10:57.305Z,100043.06
2023-04-22T04:16:00.520Z,100031.88
2023-04-22T04:21:02.663Z,100019.91
2023-04-22T04:26:05.774Z,100015.94
2023-04-22T04:31:08.072Z,100008.72
2023-04-22T04:36:10.489Z,100014.13
2023-04-22T04:41:12.324Z,100019.34
2023-04-22T04:46:15.024Z,100022.00
2023-04-22T04:51:18.223Z,100021.25
2023-04-22T04:56:21.952Z,100017.63
2023-04-22T05:01:23.927Z,100014.50
2023-04-22T05:06:26.848Z,100017.63
2023-04-22T05:11:28.692Z,100016.50
2023-04-22T05:16:30.679Z,100021.03
2023-04-22T05:21:32.713Z,100026.75
2023-04-22T05:26:34.607Z,100030.91
2023-04-22T05:31:36.410Z,100027.03
2023-04-22T05:36:38.466Z,100026.28
2023-04-22T05:41:40.724Z,100038.03
2023-04-22T05:46:42.479Z,100039.84
2023-04-22T05:51:44.282Z,100025.50
2023-04-22T05:56:46.131Z,100031.69
2023-04-22T06:01:48.027Z,100034.53
2023-04-22T06:06:53.907Z,100034.53
2023-04-22T06:11:55.696Z,100035.78
2023-04-22T06:16:57.505Z,100020.63
2023-04-22T06:21:59.250Z,100026.78
2023-04-22T06:27:01.293Z,100036.56
2023-04-22T06:32:03.779Z,100035.84
2023-04-22T06:37:06.468Z,100031.41
2023-04-22T06:42:08.598Z,100017.16
2023-04-22T06:47:10.372Z,100021.03
2023-04-22T06:52:12.461Z,100016.50
2023-04-22T06:57:14.335Z,100012.16
2023-04-22T07:02:16.377Z,100013.53
2023-04-22T07:07:18.960Z,100002.28
2023-04-22T07:12:20.854Z,99993.34
2023-04-22T07:17:22.873Z,99987.19
2023-04-22T07:22:24.726Z,99997.53
2023-04-22T07:27:26.616Z,99997.31
2023-04-22T07:32:28.415Z,99999.22
2023-04-22T07:37:30.173Z,99997.97
2023-04-22T07:42:32.061Z,99976.88
2023-04-22T07:47:33.905Z,99979.53
2023-04-22T07:52:36.618Z,99978.03
2023-04-22T07:57:40.075Z,99974.78
2023-04-22T08:02:42.386Z,99963.75
2023-04-22T08:07:44.299Z,99973.63
2023-04-22T08:12:46.299Z,99958.97
2023-04-22T08:17:49.258Z,99964.47
2023-04-22T08:22:51.811Z,99961.88
2023-04-22T08:27:53.628Z,99963.56
2023-04-22T08:32:55.472Z,99948.66
2023-04-22T08:37:57.282Z,99954.56
2023-04-22T08:42:59.214Z,99950.03
2023-04-22T08:48:02.633Z,99953.41
2023-04-22T08:53:04.506Z,99951.94
2023-04-22T08:58:06.431Z,99953.69
2023-04-22T09:03:08.926Z,99950.44
2023-04-22T09:08:12.141Z,99951.38
2023-04-22T09:13:14.953Z,99956.16
2023-04-22T09:18:20.088Z,99951.38
2023-04-22T09:23:22.999Z,99955.41
2023-04-22T09:28:24.806Z,99953.91
2023-04-22T09:33:26.690Z,99953.81
2023-04-22T09:38:31.883Z,99953.25
2023-04-22T09:43:33.711Z,99950.50
2023-04-22T09:48:42.873Z,99954.81
2023-04-22T09:53:44.779Z,99950.91
2023-04-22T09:58:52.617Z,99948.78
2023-04-22T10:03:54.659Z,99964.56
2023-04-22T10:08:57.675Z,99949.53
2023-04-22T10:14:01.331Z,99951.44
2023-04-22T10:19:05.973Z,99934.75
2023-04-22T10:24:08.034Z,99935.91
2023-04-22T10:29:16.929Z,99931.13
2023-04-22T10:34:18.874Z,99937.50
2023-04-22T10:39:22.465Z,99922.94
2023-04-22T10:44:28.351Z,99924.13
2023-04-22T10:49:31.264Z,99927.72
2023-04-22T10:54:36.898Z,99930.06
2023-04-22T10:59:52.002Z,99937.50
2023-04-22T11:05:19.720Z,99937.06
2023-04-22T11:10:44.625Z,99951.03
2023-04-22T11:15:49.871Z,99959.41
2023-04-22T11:20:53.926Z,99956.06
2023-04-22T11:26:01.217Z,99962.59
2023-04-22T11:31:07.991Z,99960.94
2023-04-22T11:36:13.548Z,99964.25
2023-04-22T11:41:21.781Z,99960.34
2023-04-22T11:46:38.824Z,99975.31
2023-04-22T11:51:57.054Z,99968.38
2023-04-22T11:57:02.712Z,99974.78
2023-04-22T12:02:08.495Z,99976.69
2023-04-22T12:07:10.368Z,99975.63
2023-04-22T12:12:12.244Z,99963.19
2023-04-22T12:17:15.218Z,99970.88
2023-04-22T12:22:30.675Z,99961.00
2023-04-22T12:27:32.714Z,99966.09
2023-04-22T12:32:34.460Z,99970.00
2023-04-22T12:37:36.299Z,99968.09
2023-04-22T12:42:38.053Z,99975.31
2023-04-22T12:47:39.960Z,99972.03
2023-04-22T12:52:41.799Z,99997.38
2023-04-22T12:57:45.167Z,99993.88
2023-04-22T13:02:48.671Z,99999.28
2023-04-22T13:08:05.826Z,99999.50
2023-04-22T13:13:18.590Z,99997.38
2023-04-22T13:18:22.756Z,100005.34
2023-04-22T13:23:26.081Z,100009.91
2023-04-22T13:28:28.511Z,100017.91
2023-04-22T13:33:30.276Z,100013.16
2023-04-22T13:38:32.172Z,100012.03
2023-04-22T13:43:34.025Z,100002.91
2023-04-22T13:48:35.971Z,99998.66
2023-04-22T13:53:38.197Z,99997.59
2023-04-22T13:58:41.383Z,99993.31
2023-04-22T14:03:44.735Z,99994.34
2023-04-22T14:08:46.821Z,99992.66
2023-04-22T14:13:48.697Z,99992.66
2023-04-22T14:18:50.634Z,100003.09
2023-04-22T14:23:52.500Z,99996.72
2023-04-22T14:28:54.321Z,99981.06
2023-04-22T14:33:56.427Z,100000.56
2023-04-22T14:38:58.203Z,99990.09
2023-04-22T14:44:00.032Z,99988.28
2023-04-22T14:49:01.863Z,99997.22
2023-04-22T14:54:03.790Z,100009.47
2023-04-22T14:59:05.687Z,100002.34
2023-04-22T15:04:08.317Z,99999.88
2023-04-22T15:09:10.249Z,100000.19
2023-04-22T15:14:12.029Z,100000.06
2023-04-22T15:19:14.159Z,100003.47
2023-04-22T15:24:16.037Z,100018.81
2023-04-22T15:29:18.242Z,100012.44
2023-04-22T15:34:20.249Z,100021.56
2023-04-22T15:39:24.006Z,100021.06
2023-04-22T15:44:25.792Z,100019.34
2023-04-22T15:49:27.582Z,100020.97
2023-04-22T15:54:29.432Z,100023.06
2023-04-22T15:59:31.232Z,100022.00
2023-04-22T16:04:33.335Z,100023.16
2023-04-22T16:09:35.170Z,100019.66
2023-04-22T16:14:36.971Z,100018.41
2023-04-22T16:19:39.157Z,100017.53
2023-04-22T16:24:43.756Z,100014.13
2023-04-22T16:29:46.272Z,100022.22
2023-04-22T16:34:48.076Z,100014.88
2023-04-22T16:39:49.930Z,100017.75
2023-04-22T16:44:51.795Z,100023.75
2023-04-22T16:49:53.663Z,100017.75
2023-04-22T16:54:55.898Z,100017.53
2023-04-22T16:59:57.779Z,100021.63
2023-04-22T17:05:02.637Z,100021.53
2023-04-22T17:10:04.853Z,100030.44
2023-04-22T17:15:07.468Z,100038.66
2023-04-22T17:20:09.698Z,100053.63
2023-04-22T17:25:11.471Z,100068.00
2023-04-22T17:30:13.668Z,100060.97
2023-04-22T17:35:16.017Z,100064.66
2023-04-22T17:40:17.963Z,100072.41
2023-04-22T17:45:19.848Z,100075.31
2023-04-22T17:50:23.452Z,100080.53
2023-04-22T17:55:25.274Z,100078.72
2023-04-22T18:00:27.646Z,100086.53
2023-04-22T18:05:29.398Z,100092.69
2023-04-22T18:10:34.247Z,100095.28
2023-04-22T18:15:36.098Z,100096.31
2023-04-22T18:20:37.945Z,100109.41
2023-04-22T18:25:39.805Z,100117.47
2023-04-22T18:30:42.064Z,100126.53
2023-04-22T18:35:43.904Z,100134.72
2023-04-22T18:40:46.567Z,100145.44
2023-04-22T18:45:48.461Z,100151.69
2023-04-22T18:50:50.795Z,100157.22
2023-04-22T18:55:52.580Z,100169.38
2023-04-22T19:00:54.602Z,100165.97
2023-04-22T19:05:56.497Z,100185.44
2023-04-22T19:10:58.564Z,100193.31
2023-04-22T19:16:00.425Z,100206.63
2023-04-22T19:21:03.257Z,100213.84
2023-04-22T19:26:05.259Z,100220.97
2023-04-22T19:31:07.713Z,100228.09
2023-04-22T19:36:09.674Z,100229.72
2023-04-22T19:41:12.012Z,100228.97
2023-04-22T19:46:13.893Z,100222.38
2023-04-22T19:51:16.032Z,100223.53
2023-04-22T19:56:18.363Z,100217.06
2023-04-22T20:01:20.542Z,100215.38
2023-04-22T20:06:22.941Z,100224.50
2023-04-22T20:11:29.592Z,100220.78
2023-04-22T20:16:32.240Z,100224.19
2023-04-22T20:21:34.805Z,100217.94
2023-04-22T20:26:37.732Z,100222.31
2023-04-22T20:31:40.550Z,100215.47
2023-04-22T20:36:43.048Z,100212.88
2023-04-22T20:41:45.975Z,100210.13
2023-04-22T20:46:48.997Z,100213.66
2023-04-22T20:51:51.571Z,100201.47
2023-04-22T20:56:54.079Z,100211.09
2023-04-22T21:01:56.892Z,100224.78
2023-04-22T21:07:04.171Z,100222.97
2023-04-22T21:12:06.660Z,100230.88
2023-04-22T21:17:35.542Z,100227.44
2023-04-22T21:22:38.067Z,100222.88
2023-04-22T21:27:40.107Z,100214.91
2023-04-22T21:32:42.521Z,100210.72
2023-04-22T21:37:44.436Z,100226.59
2023-04-22T21:42:46.204Z,100235.13
2023-04-22T21:47:48.027Z,100229.81
2023-04-22T21:52:50.026Z,100230.75
2023-04-22T21:57:51.852Z,100227.53
2023-04-22T22:02:53.956Z,100228.50
2023-04-22T22:07:55.867Z,100234.56
2023-04-22T22:12:57.683Z,100232.69
2023-04-22T22:17:59.798Z,100231.78
2023-04-22T22:23:01.640Z,100232.84
2023-04-22T22:28:03.561Z,100231.03
2023-04-22T22:33:05.987Z,100225.84
2023-04-22T22:38:07.834Z,100233.59
2023-04-22T22:43:09.616Z,100224.78
2023-04-22T22:48:11.478Z,100215.19
2023-04-22T22:53:13.517Z,100217.72
2023-04-22T22:58:15.384Z,100208.53
2023-04-22T23:03:19.322Z,100206.06
2023-04-22T23:08:21.576Z,100200.00
2023-04-22T23:13:23.358Z,100197.41
2023-04-22T23:18:26.919Z,100200.00
2023-04-22T23:23:32.172Z,100197.41
2023-04-22T23:28:34.371Z,100198.09
2023-04-22T23:33:39.536Z,100206.06
2023-04-22T23:38:41.389Z,100203.50
2023-04-22T23:43:43.159Z,100207.00
2023-04-22T23:48:45.002Z,100194.66
2023-04-22T23:53:47.074Z,100193.78
2023-04-22T23:58:52.430Z,100187.53
